Time;durP1;ratioP1;P1;durP2;ratioP2;P2;SDS_P1;SDS_P2;PMS_P1;PMS_P2;Temp;Humidity;BMP_temperature;BMP_pressure;BME280_temperature;BME280_humidity;BME280_pressure;Samples;Min_cycle;Max_cycle;Signal;HPM_P1;HPM_P2
2022/04/15 00:01:22;;;;;;;3.33;2.90;;;;;;;18.72;47.80;97972.63;5108462;28;20470;-71
2022/04/15 00:03:48;;;;;;;6.43;2.83;;;;;;;18.75;47.56;97966.94;5111609;28;20180;-71
2022/04/15 00:06:14;;;;;;;12.20;2.73;;;;;;;18.76;47.53;97971.25;5110493;28;20177;-71
2022/04/15 00:08:40;;;;;;;4.30;2.73;;;;;;;18.76;47.76;97960.63;5115245;28;20430;-71
2022/04/15 00:11:06;;;;;;;7.83;3.00;;;;;;;18.67;47.95;97965.22;5118204;27;20264;-69
2022/04/15 00:13:32;;;;;;;4.30;2.77;;;;;;;18.73;47.81;97966.31;5113018;28;20411;-71
2022/04/15 00:16:08;;;;;;;3.97;2.80;;;;;;;18.45;48.55;97968.81;5093281;28;20181;-70
2022/04/15 00:18:34;;;;;;;3.40;2.87;;;;;;;18.53;48.19;97972.19;5102566;28;20425;-70
2022/04/15 00:21:01;;;;;;;3.20;2.90;;;;;;;18.52;48.35;97973.22;5111244;28;20966;-70
2022/04/15 00:23:26;;;;;;;6.60;3.13;;;;;;;18.47;48.33;97969.44;5113118;28;20233;-70
2022/04/15 00:25:52;;;;;;;9.10;2.93;;;;;;;18.49;48.54;97978.03;5118003;28;20423;-70
2022/04/15 00:28:18;;;;;;;6.20;2.87;;;;;;;18.45;48.46;97982.09;5092486;28;20188;-70
2022/04/15 00:30:44;;;;;;;3.70;3.27;;;;;;;18.32;48.56;97982.72;5110815;28;20426;-69
2022/04/15 00:33:09;;;;;;;4.73;2.83;;;;;;;18.35;48.44;97985.81;5085234;28;20428;-70
2022/04/15 00:35:35;;;;;;;8.17;3.70;;;;;;;18.33;48.92;97984.38;5110085;28;20192;-69
2022/04/15 00:38:01;;;;;;;4.27;3.43;;;;;;;18.30;48.43;97990.88;5110699;28;20276;-69
2022/04/15 00:40:26;;;;;;;11.73;3.73;;;;;;;18.30;48.88;97982.06;5091929;28;20181;-71
2022/04/15 00:42:52;;;;;;;5.90;3.00;;;;;;;18.24;49.01;97976.50;5109196;27;20212;-69
2022/04/15 00:45:18;;;;;;;5.97;3.20;;;;;;;18.21;48.70;97974.22;5110763;28;20189;-70
2022/04/15 00:47:48;;;;;;;3.43;2.93;;;;;;;18.23;48.81;97977.53;5113278;28;20427;-71
2022/04/15 00:50:14;;;;;;;3.87;2.53;;;;;;;18.25;49.05;97975.50;5110607;28;20719;-71
2022/04/15 00:52:44;;;;;;;7.03;2.70;;;;;;;18.16;49.24;97976.59;5110207;28;20434;-71
2022/04/15 00:55:11;;;;;;;4.57;2.93;;;;;;;18.13;49.09;97979.63;5092835;28;20431;-71
2022/04/15 00:57:41;;;;;;;4.83;2.70;;;;;;;18.20;48.95;97983.19;5092530;28;20441;-70
2022/04/15 01:00:08;;;;;;;5.57;2.80;;;;;;;17.98;49.63;97984.88;5109995;28;20522;-71
2022/04/15 01:02:34;;;;;;;5.10;2.80;;;;;;;18.02;49.89;97990.69;5110333;28;20523;-70
2022/04/15 01:05:01;;;;;;;6.20;3.10;;;;;;;18.11;49.49;97977.13;5111514;28;20417;-71
2022/04/15 01:07:29;;;;;;;3.83;2.87;;;;;;;18.14;49.13;97988.38;5114225;28;20480;-71
2022/04/15 01:09:55;;;;;;;4.60;2.70;;;;;;;18.12;49.53;97983.28;5095762;28;20489;-71
2022/04/15 01:12:22;;;;;;;4.03;3.40;;;;;;;18.08;49.62;97979.34;5121706;27;20447;-71
2022/04/15 01:14:48;;;;;;;10.77;3.27;;;;;;;18.06;49.54;97991.94;5096527;28;20193;-71
2022/04/15 01:17:14;;;;;;;4.60;2.70;;;;;;;18.06;49.57;97984.00;5096019;28;20783;-71
2022/04/15 01:19:40;;;;;;;6.33;2.73;;;;;;;17.93;50.26;97981.94;5113729;28;20415;-70
2022/04/15 01:22:09;;;;;;;4.27;2.90;;;;;;;18.02;49.93;97985.38;5113942;28;20621;-72
2022/04/15 01:24:38;;;;;;;4.80;2.80;;;;;;;18.06;49.83;97986.66;5113784;28;20919;-71
2022/04/15 01:27:04;;;;;;;4.70;3.10;;;;;;;18.08;49.52;97979.34;5114759;28;20434;-71
2022/04/15 01:29:37;;;;;;;5.43;3.23;;;;;;;18.05;49.88;97982.34;5114470;28;20431;-71
2022/04/15 01:32:04;;;;;;;4.30;3.23;;;;;;;18.02;49.83;97983.53;5095736;28;20480;-71
2022/04/15 01:34:30;;;;;;;3.23;2.93;;;;;;;17.94;50.10;97986.25;5113618;28;20431;-70
2022/04/15 01:36:56;;;;;;;6.20;2.93;;;;;;;18.06;50.16;97982.19;5113434;28;20437;-69
2022/04/15 01:39:21;;;;;;;3.13;2.70;;;;;;;18.15;49.88;97987.38;5094438;28;20177;-71
2022/04/15 01:41:47;;;;;;;3.50;2.93;;;;;;;18.16;49.47;97989.84;5095025;28;20227;-69
2022/04/15 01:44:15;;;;;;;6.83;2.77;;;;;;;18.21;49.73;97987.47;5113939;28;20254;-69
2022/04/15 01:46:42;;;;;;;2.70;2.50;;;;;;;18.06;50.00;97991.94;5087668;28;20183;-69
2022/04/15 01:49:08;;;;;;;4.13;2.50;;;;;;;18.07;49.99;97990.94;5105861;28;20436;-69
2022/04/15 01:51:34;;;;;;;5.27;3.40;;;;;;;18.10;50.06;97987.94;5112098;28;20500;-69
2022/04/15 01:54:00;;;;;;;5.93;3.00;;;;;;;18.10;49.74;97994.06;5113455;28;20237;-69
2022/04/15 01:56:25;;;;;;;4.20;2.90;;;;;;;18.11;49.67;97992.25;5112936;28;20973;-70
2022/04/15 01:58:51;;;;;;;3.60;3.00;;;;;;;18.04;50.06;97999.25;5113292;28;20216;-70
2022/04/15 02:01:16;;;;;;;5.27;2.80;;;;;;;17.95;50.30;98001.16;5112849;28;20205;-69
2022/04/15 02:03:42;;;;;;;7.00;3.43;;;;;;;17.98;50.33;97994.69;5113629;28;20702;-70
2022/04/15 02:06:08;;;;;;;7.17;3.50;;;;;;;17.98;50.21;98000.00;5095001;28;20185;-71
2022/04/15 02:08:33;;;;;;;6.77;3.07;;;;;;;18.02;50.33;97995.97;5113025;28;20236;-70
2022/04/15 02:10:59;;;;;;;6.43;3.10;;;;;;;17.88;50.35;97993.09;5111036;28;20712;-70
2022/04/15 02:13:24;;;;;;;4.27;3.13;;;;;;;17.89;50.66;97996.56;5113267;28;20235;-70
2022/04/15 02:15:50;;;;;;;6.07;3.30;;;;;;;17.96;50.52;97997.47;5112965;28;20189;-71
2022/04/15 02:18:15;;;;;;;4.63;2.70;;;;;;;18.03;50.36;97998.44;5113241;28;20189;-69
2022/04/15 02:20:41;;;;;;;3.60;3.30;;;;;;;18.03;50.28;98003.75;5094514;28;20184;-70
2022/04/15 02:23:06;;;;;;;5.37;3.53;;;;;;;18.08;50.26;97995.25;5112966;28;20589;-70
2022/04/15 02:25:32;;;;;;;4.47;3.00;;;;;;;18.04;50.31;98004.56;5094362;28;20669;-70
2022/04/15 02:27:57;;;;;;;3.77;2.80;;;;;;;17.94;50.49;98008.28;5112775;28;20189;-71
2022/04/15 02:30:23;;;;;;;7.20;3.20;;;;;;;17.94;50.37;98016.22;5114665;27;20187;-70
2022/04/15 02:32:48;;;;;;;4.20;3.23;;;;;;;17.77;50.84;98012.06;5112678;28;20566;-70
2022/04/15 02:35:14;;;;;;;4.17;3.10;;;;;;;17.72;50.73;98009.13;5112747;28;20634;-70
2022/04/15 02:37:40;;;;;;;5.90;3.40;;;;;;;17.77;51.14;97998.81;5112320;28;20200;-70
2022/04/15 02:40:06;;;;;;;3.70;2.77;;;;;;;17.82;50.83;98001.75;5114728;27;20218;-71
2022/04/15 02:42:32;;;;;;;3.30;3.00;;;;;;;17.76;51.27;98008.59;5119894;27;20225;-70
2022/04/15 02:44:58;;;;;;;5.83;2.90;;;;;;;17.69;51.37;98012.13;5092306;28;20460;-71
2022/04/15 02:47:24;;;;;;;4.77;3.33;;;;;;;17.73;51.55;98008.13;5119342;27;20513;-70
2022/04/15 02:49:50;;;;;;;4.07;3.10;;;;;;;17.64;51.47;98005.53;5093989;28;20181;-70
2022/04/15 02:52:16;;;;;;;4.00;3.17;;;;;;;17.61;51.66;98008.56;5112804;28;20257;-71
2022/04/15 02:54:41;;;;;;;6.40;3.50;;;;;;;17.48;51.78;98008.31;5112288;28;20506;-70
2022/04/15 02:57:07;;;;;;;3.70;3.20;;;;;;;17.48;52.03;98013.63;5112678;28;20188;-70
2022/04/15 02:59:33;;;;;;;6.70;3.20;;;;;;;17.49;51.80;98007.31;5112034;28;20185;-72
2022/04/15 03:01:58;;;;;;;4.10;3.30;;;;;;;17.52;51.90;98011.44;5112350;28;21033;-70
2022/04/15 03:04:24;;;;;;;5.47;3.40;;;;;;;17.43;51.98;98005.38;5112647;28;20562;-70
2022/04/15 03:06:49;;;;;;;5.77;3.60;;;;;;;17.47;51.79;98001.38;5112640;28;20181;-70
2022/04/15 03:09:15;;;;;;;3.80;3.20;;;;;;;17.57;51.58;98003.78;5111880;28;20261;-70
2022/04/15 03:11:41;;;;;;;8.30;3.10;;;;;;;17.60;51.75;98006.06;5101615;28;20650;-71
2022/04/15 03:14:06;;;;;;;7.80;3.07;;;;;;;17.47;52.02;98004.03;5112235;28;20193;-70
2022/04/15 03:16:33;;;;;;;5.80;2.70;;;;;;;17.53;51.67;98007.78;5093629;28;20189;-70
2022/04/15 03:18:58;;;;;;;4.53;3.60;;;;;;;17.48;51.56;98006.50;5112032;28;20199;-71
2022/04/15 03:21:24;;;;;;;3.30;3.00;;;;;;;17.45;51.87;98000.72;5111792;28;20467;-71
2022/04/15 03:23:49;;;;;;;5.53;3.20;;;;;;;17.45;51.86;98001.53;5093918;28;20258;-70
2022/04/15 03:26:15;;;;;;;4.60;3.13;;;;;;;17.43;52.09;98003.56;5112269;28;20181;-70
2022/04/15 03:28:40;;;;;;;7.47;3.07;;;;;;;17.42;51.62;98004.56;5111450;28;20213;-70
2022/04/15 03:31:06;;;;;;;3.83;3.20;;;;;;;17.39;51.98;98004.09;5111671;28;20247;-70
2022/04/15 03:33:32;;;;;;;5.27;3.53;;;;;;;17.35;52.03;98006.25;5111824;28;20177;-70
2022/04/15 03:35:58;;;;;;;9.73;3.60;;;;;;;17.40;51.82;98005.72;5111901;28;20320;-70
2022/04/15 03:38:23;;;;;;;5.53;3.40;;;;;;;17.26;52.13;98013.44;5111504;28;20525;-69
2022/04/15 03:40:49;;;;;;;4.43;3.63;;;;;;;17.25;52.22;98005.66;5110824;28;20207;-71
2022/04/15 03:43:14;;;;;;;4.93;3.40;;;;;;;17.23;52.16;98008.50;5111948;28;20641;-69
2022/04/15 03:45:40;;;;;;;7.10;3.40;;;;;;;17.24;51.92;98009.31;5111239;28;20177;-69
2022/04/15 03:48:05;;;;;;;4.57;3.73;;;;;;;17.12;52.01;98006.25;5111738;28;20189;-68
2022/04/15 03:50:31;;;;;;;4.03;2.93;;;;;;;17.05;52.35;98011.41;5107776;28;20203;-70
2022/04/15 03:52:56;;;;;;;4.30;3.90;;;;;;;17.10;52.42;98009.06;5108777;27;20201;-70
2022/04/15 03:55:24;;;;;;;7.60;3.90;;;;;;;17.04;52.64;98004.47;5111085;28;20191;-70
2022/04/15 03:57:50;;;;;;;4.13;3.73;;;;;;;17.07;52.24;98009.44;5111361;28;20181;-71
2022/04/15 04:00:21;;;;;;;4.47;3.40;;;;;;;17.03;52.38;98016.88;5109921;28;20498;-69
2022/04/15 04:02:48;;;;;;;5.03;3.30;;;;;;;16.87;52.77;98009.81;5111424;28;20213;-71
2022/04/15 04:05:13;;;;;;;3.57;3.23;;;;;;;16.94;52.45;98014.44;5111643;28;20465;-71
2022/04/15 04:07:43;;;;;;;8.63;3.50;;;;;;;16.88;52.09;98016.75;5093677;28;20419;-71
2022/04/15 04:10:12;;;;;;;5.60;3.37;;;;;;;16.85;52.57;98021.59;5111094;28;20181;-70
2022/04/15 04:12:37;;;;;;;4.50;3.17;;;;;;;16.82;52.63;98017.44;5110723;28;20951;-69
2022/04/15 04:15:05;;;;;;;5.13;3.60;;;;;;;16.80;52.47;98018.63;5111010;28;20537;-70
2022/04/15 04:17:31;;;;;;;5.53;3.40;;;;;;;16.75;52.46;98016.50;5111038;28;20188;-70
2022/04/15 04:19:56;;;;;;;7.37;3.50;;;;;;;16.67;52.63;98024.47;5092399;28;20481;-71
2022/04/15 04:22:27;;;;;;;5.83;3.33;;;;;;;16.67;52.73;98022.63;5092153;28;20490;-71
2022/04/15 04:24:53;;;;;;;5.90;3.57;;;;;;;16.66;52.32;98026.28;5111043;28;20238;-70
2022/04/15 04:27:18;;;;;;;3.33;3.03;;;;;;;16.54;52.83;98025.84;5112483;28;20418;-70
2022/04/15 04:29:44;;;;;;;3.80;3.30;;;;;;;16.66;52.77;98028.91;5067389;28;20220;-69
2022/04/15 04:32:09;;;;;;;3.73;3.40;;;;;;;16.59;52.68;98028.78;5085705;28;20201;-70
2022/04/15 04:34:35;;;;;;;4.47;3.77;;;;;;;16.50;52.86;98029.81;5112678;28;20197;-70
2022/04/15 04:37:00;;;;;;;6.00;3.60;;;;;;;16.49;53.09;98033.44;5101878;28;20197;-70
2022/04/15 04:39:29;;;;;;;4.10;3.23;;;;;;;16.55;52.63;98042.53;5110262;28;20189;-70
2022/04/15 04:41:55;;;;;;;4.93;3.60;;;;;;;16.49;52.99;98048.50;5117299;27;20216;-71
2022/04/15 04:44:20;;;;;;;7.10;4.00;;;;;;;16.44;52.84;98046.38;5096148;28;20866;-70
2022/04/15 04:46:46;;;;;;;4.13;3.67;;;;;;;16.37;52.80;98048.88;5114899;28;20462;-71
2022/04/15 04:49:11;;;;;;;4.47;4.07;;;;;;;16.46;52.92;98051.50;5113672;28;20272;-70
2022/04/15 04:51:37;;;;;;;5.27;4.70;;;;;;;16.34;53.00;98046.56;5113595;28;20205;-71
2022/04/15 04:54:02;;;;;;;4.70;4.20;;;;;;;16.36;53.23;98057.81;5114597;28;20239;-70
2022/04/15 04:56:29;;;;;;;6.27;4.27;;;;;;;16.41;52.64;98057.28;5114495;28;20192;-69
2022/04/15 04:58:54;;;;;;;7.07;4.00;;;;;;;16.25;53.13;98052.88;5114334;28;20185;-71
2022/04/15 05:01:20;;;;;;;5.90;3.67;;;;;;;16.19;53.70;98064.91;5112900;28;21646;-70
2022/04/15 05:03:45;;;;;;;4.90;3.83;;;;;;;16.24;53.66;98061.78;5106877;28;20186;-71
2022/04/15 05:06:11;;;;;;;5.60;4.00;;;;;;;16.21;53.63;98056.81;5114687;28;20693;-70
2022/04/15 05:08:36;;;;;;;6.70;4.30;;;;;;;16.10;54.10;98065.91;5113899;28;20177;-71
2022/04/15 05:11:02;;;;;;;4.30;3.90;;;;;;;16.29;53.44;98062.09;5113843;28;20244;-71
2022/04/15 05:13:27;;;;;;;5.40;3.93;;;;;;;16.41;52.96;98068.69;5087622;28;20288;-70
2022/04/15 05:15:53;;;;;;;8.30;3.90;;;;;;;16.26;53.63;98075.66;5112715;28;20188;-71
2022/04/15 05:18:18;;;;;;;4.33;3.87;;;;;;;16.38;53.54;98071.66;5114036;28;20181;-71
2022/04/15 05:20:45;;;;;;;6.80;4.53;;;;;;;16.30;53.61;98076.97;5094929;28;20177;-68
2022/04/15 05:23:12;;;;;;;9.60;4.07;;;;;;;16.43;53.46;98079.94;5087885;28;20184;-70
2022/04/15 05:25:38;;;;;;;7.90;4.23;;;;;;;16.43;53.53;98077.28;5113658;28;20945;-70
2022/04/15 05:28:03;;;;;;;5.27;4.40;;;;;;;16.55;53.63;98084.84;5113976;28;20430;-72
2022/04/15 05:30:29;;;;;;;10.00;4.47;;;;;;;16.58;53.25;98085.34;5112615;28;20185;-71
2022/04/15 05:32:54;;;;;;;10.53;4.30;;;;;;;16.70;53.31;98093.75;5113880;28;20258;-71
2022/04/15 05:35:20;;;;;;;4.50;4.03;;;;;;;16.72;53.07;98085.63;5113196;28;20193;-71
2022/04/15 05:37:45;;;;;;;6.43;4.27;;;;;;;16.65;53.81;98092.63;5113274;28;20205;-70
2022/04/15 05:40:11;;;;;;;5.73;3.97;;;;;;;16.80;53.41;98098.03;5113453;28;20586;-71
2022/04/15 05:42:36;;;;;;;4.90;3.70;;;;;;;16.89;53.22;98087.25;5113116;28;20293;-71
2022/04/15 05:45:02;;;;;;;6.27;4.10;;;;;;;16.95;53.30;98091.06;5106863;28;20268;-70
2022/04/15 05:47:28;;;;;;;7.20;4.50;;;;;;;16.90;53.62;98088.06;5111495;28;20188;-70
2022/04/15 05:49:53;;;;;;;7.83;4.70;;;;;;;16.86;53.60;98098.16;5113298;28;20267;-71
2022/04/15 05:52:19;;;;;;;4.93;4.10;;;;;;;16.88;54.01;98098.03;5113394;27;20254;-71
2022/04/15 05:54:44;;;;;;;6.57;5.27;;;;;;;17.08;53.72;98100.28;5113443;28;20189;-70
2022/04/15 05:57:10;;;;;;;6.77;4.83;;;;;;;17.23;53.00;98103.84;5119066;28;20181;-72
2022/04/15 05:59:35;;;;;;;5.07;4.37;;;;;;;17.40;52.89;98109.88;5094578;28;20211;-72
2022/04/15 06:02:01;;;;;;;8.53;4.80;;;;;;;17.59;52.92;98105.13;5094208;28;20240;-73
2022/04/15 06:04:26;;;;;;;5.90;4.90;;;;;;;17.71;52.64;98105.56;5113322;28;20184;-72
2022/04/15 06:06:52;;;;;;;7.37;5.40;;;;;;;17.80;52.63;98115.09;5113520;28;20719;-71
2022/04/15 06:09:17;;;;;;;8.03;4.83;;;;;;;18.01;52.45;98111.03;5112726;28;20189;-70
2022/04/15 06:11:43;;;;;;;8.13;4.67;;;;;;;18.14;52.35;98113.06;5113113;28;20712;-70
2022/04/15 06:14:09;;;;;;;8.43;5.80;;;;;;;18.24;51.94;98106.50;5113420;28;20189;-70
2022/04/15 06:16:37;;;;;;;9.00;5.13;;;;;;;18.42;51.94;98108.84;5112976;28;20199;-70
2022/04/15 06:19:04;;;;;;;6.83;5.37;;;;;;;18.69;51.93;98117.19;5112867;28;20434;-72
2022/04/15 06:21:31;;;;;;;10.93;5.50;;;;;;;18.86;51.29;98104.56;5113312;28;20459;-70
2022/04/15 06:23:56;;;;;;;6.80;5.47;;;;;;;18.95;50.89;98113.28;5104764;28;20426;-70
2022/04/15 06:26:25;;;;;;;8.77;5.43;;;;;;;18.95;50.45;98113.28;5111529;27;20445;-71
2022/04/15 06:28:50;;;;;;;9.47;6.43;;;;;;;18.95;50.25;98115.94;5124202;27;20184;-71
2022/04/15 06:31:16;;;;;;;9.50;6.23;;;;;;;18.97;49.89;98116.56;5118712;27;20495;-70
2022/04/15 06:33:42;;;;;;;8.43;5.90;;;;;;;19.04;50.31;98116.66;5110486;28;20706;-71
2022/04/15 06:36:07;;;;;;;8.00;6.73;;;;;;;19.19;50.12;98114.81;5112352;28;20422;-71
2022/04/15 06:38:32;;;;;;;7.87;6.47;;;;;;;19.32;49.52;98113.31;5112549;28;20625;-71
2022/04/15 06:40:58;;;;;;;13.60;5.47;;;;;;;19.43;49.27;98120.00;5112560;28;20204;-71
2022/04/15 06:43:23;;;;;;;7.80;6.60;;;;;;;19.48;49.00;98117.59;5112215;28;20715;-70
2022/04/15 06:45:49;;;;;;;11.10;7.20;;;;;;;19.53;48.57;98112.53;5112585;28;20181;-70
2022/04/15 06:48:15;;;;;;;11.37;7.53;;;;;;;19.60;48.80;98115.28;5115014;27;20192;-71
2022/04/15 06:50:40;;;;;;;17.80;7.90;;;;;;;19.56;48.41;98114.00;5112304;27;20180;-70
2022/04/15 06:53:06;;;;;;;9.07;6.87;;;;;;;19.59;48.91;98118.94;5112616;28;20559;-69
2022/04/15 06:55:32;;;;;;;10.07;7.57;;;;;;;19.76;48.84;98123.03;5112532;28;20204;-70
2022/04/15 06:57:58;;;;;;;11.63;8.10;;;;;;;19.95;48.32;98113.63;5112300;28;20411;-69
2022/04/15 07:00:23;;;;;;;10.00;8.03;;;;;;;20.10;47.12;98121.53;5112065;28;20317;-71
2022/04/15 07:02:49;;;;;;;12.53;8.70;;;;;;;20.24;47.20;98117.13;5113869;27;20788;-70
2022/04/15 07:05:15;;;;;;;9.17;8.10;;;;;;;20.48;46.95;98123.03;5112424;28;20192;-70
2022/04/15 07:07:41;;;;;;;11.37;8.10;;;;;;;20.66;46.09;98119.06;5103887;28;20973;-70
2022/04/15 07:10:08;;;;;;;13.00;8.67;;;;;;;20.76;45.29;98118.75;5112107;28;20181;-71
2022/04/15 07:12:34;;;;;;;12.07;8.33;;;;;;;20.85;45.50;98120.25;5093678;28;20458;-70
2022/04/15 07:15:00;;;;;;;10.83;9.27;;;;;;;20.96;44.88;98119.69;5112192;28;20431;-70
2022/04/15 07:17:25;;;;;;;11.40;8.57;;;;;;;21.11;44.19;98118.75;5119113;27;20196;-70
2022/04/15 07:19:51;;;;;;;13.23;8.93;;;;;;;21.22;44.59;98123.50;5080371;28;20193;-71
2022/04/15 07:22:20;;;;;;;10.90;8.87;;;;;;;21.43;44.05;98119.91;5108294;28;20236;-70
2022/04/15 07:24:46;;;;;;;10.97;8.17;;;;;;;21.64;43.78;98118.13;5112188;27;20653;-71
2022/04/15 07:27:12;;;;;;;11.97;8.60;;;;;;;21.78;42.87;98119.00;5094439;28;20423;-72
2022/04/15 07:29:37;;;;;;;15.40;9.97;;;;;;;21.70;41.66;98122.66;5110830;28;20433;-71
2022/04/15 07:32:03;;;;;;;14.17;10.17;;;;;;;21.85;41.23;98119.81;5112463;27;20208;-73
2022/04/15 07:34:29;;;;;;;14.27;11.10;;;;;;;21.77;40.99;98120.00;5111658;28;20700;-70
2022/04/15 07:36:55;;;;;;;14.77;11.67;;;;;;;21.82;40.44;98122.06;5096684;28;20527;-70
2022/04/15 07:39:21;;;;;;;15.93;12.40;;;;;;;21.85;40.30;98127.81;5108448;28;20509;-70
2022/04/15 07:41:47;;;;;;;15.23;11.90;;;;;;;22.00;40.27;98122.28;5111722;28;20300;-70
2022/04/15 07:44:14;;;;;;;13.07;11.07;;;;;;;21.97;39.97;98124.56;5111823;28;20496;-71
2022/04/15 07:46:41;;;;;;;13.67;12.20;;;;;;;21.90;39.58;98120.03;5118423;27;20427;-69
2022/04/15 07:49:06;;;;;;;12.07;10.67;;;;;;;21.96;40.14;98122.91;5112951;28;20512;-71
2022/04/15 07:51:33;;;;;;;25.10;12.50;;;;;;;22.07;39.83;98124.97;5111504;28;20478;-69
2022/04/15 07:53:59;;;;;;;14.13;11.20;;;;;;;22.18;39.72;98123.53;5118481;28;20187;-70
2022/04/15 07:56:24;;;;;;;14.57;11.20;;;;;;;22.20;40.03;98124.16;5120328;27;20477;-70
2022/04/15 07:58:50;;;;;;;12.87;11.23;;;;;;;22.32;39.74;98119.00;5111573;28;20262;-70
2022/04/15 08:01:17;;;;;;;13.90;11.37;;;;;;;22.49;39.45;98122.94;5128801;27;20218;-72
2022/04/15 08:03:43;;;;;;;15.03;10.57;;;;;;;22.67;39.02;98118.81;5111881;28;20513;-70
2022/04/15 08:06:09;;;;;;;13.47;11.50;;;;;;;22.79;38.61;98117.16;5111673;28;20439;-70
2022/04/15 08:08:35;;;;;;;13.87;11.63;;;;;;;23.04;38.23;98113.81;5111393;28;21223;-70
2022/04/15 08:11:01;;;;;;;14.13;10.77;;;;;;;23.28;38.16;98114.16;5111449;28;20177;-70
2022/04/15 08:13:27;;;;;;;10.93;9.80;;;;;;;23.47;37.53;98112.41;5111321;28;20208;-70
2022/04/15 08:15:55;;;;;;;13.73;12.03;;;;;;;23.60;36.74;98119.53;5117904;27;20474;-71
2022/04/15 08:18:22;;;;;;;17.93;12.60;;;;;;;23.75;36.86;98120.06;5118488;27;20189;-70
2022/04/15 08:20:50;;;;;;;14.17;11.00;;;;;;;23.91;36.41;98121.41;5115321;28;20514;-70
2022/04/15 08:23:17;;;;;;;12.20;10.23;;;;;;;24.15;36.09;98118.19;5115272;28;20423;-71
2022/04/15 08:25:43;;;;;;;14.80;11.03;;;;;;;24.26;35.38;98124.69;5115244;28;20427;-72
2022/04/15 08:28:09;;;;;;;19.53;10.70;;;;;;;24.38;35.00;98129.13;5098296;28;20473;-72
2022/04/15 08:30:35;;;;;;;11.37;10.00;;;;;;;24.58;35.10;98127.28;5114521;28;20790;-69
2022/04/15 08:33:02;;;;;;;13.70;10.83;;;;;;;24.77;34.42;98123.63;5115817;27;20488;-70
2022/04/15 08:35:28;;;;;;;14.47;11.33;;;;;;;24.98;33.77;98125.03;5086160;28;20658;-70
2022/04/15 08:37:53;;;;;;;12.37;11.07;;;;;;;25.15;33.33;98122.56;5066586;28;20526;-70
2022/04/15 08:40:19;;;;;;;12.27;10.97;;;;;;;25.37;32.73;98132.03;5110468;28;20665;-70
2022/04/15 08:42:45;;;;;;;14.00;10.43;;;;;;;25.64;32.34;98129.88;5076579;28;20220;-71
2022/04/15 08:45:13;;;;;;;12.73;11.13;;;;;;;25.72;32.31;98121.47;5126741;27;20232;-70
2022/04/15 08:47:39;;;;;;;13.17;11.10;;;;;;;25.75;32.41;98120.19;5122998;27;20188;-74
2022/04/15 08:50:07;;;;;;;11.93;10.70;;;;;;;25.73;31.69;98131.16;5117016;27;20431;-73
2022/04/15 08:52:33;;;;;;;11.97;10.77;;;;;;;25.81;31.09;98130.03;5114374;28;20553;-75
2022/04/15 08:54:59;;;;;;;13.67;12.00;;;;;;;25.98;30.85;98134.72;5099553;28;20466;-74
2022/04/15 08:57:25;;;;;;;14.53;10.30;;;;;;;26.06;30.57;98131.72;5112528;28;20196;-74
2022/04/15 08:59:50;;;;;;;11.57;9.70;;;;;;;26.11;29.84;98139.94;5114895;28;20786;-74
2022/04/15 09:02:37;;;;;;;12.17;10.20;;;;;;;26.17;29.90;98139.03;5115061;27;20466;-74
2022/04/15 09:05:04;;;;;;;10.63;9.20;;;;;;;26.41;29.73;98136.34;5115016;28;20261;-72
2022/04/15 09:07:30;;;;;;;11.70;10.43;;;;;;;26.50;29.84;98137.63;5114857;28;20426;-73
2022/04/15 09:09:56;;;;;;;18.87;12.07;;;;;;;26.40;29.62;98139.28;5114812;28;20480;-73
2022/04/15 09:12:28;;;;;;;15.93;11.93;;;;;;;26.29;30.61;98140.91;5114487;28;20523;-74
2022/04/15 09:14:58;;;;;;;14.37;11.53;;;;;;;26.24;30.73;98143.44;5100311;28;20784;-74
2022/04/15 09:17:23;;;;;;;12.10;10.90;;;;;;;26.22;30.16;98147.19;5107422;27;20532;-74
2022/04/15 09:19:52;;;;;;;13.97;11.93;;;;;;;26.24;30.52;98143.44;5114369;28;21198;-74
2022/04/15 09:22:18;;;;;;;15.63;13.63;;;;;;;26.26;30.18;98141.34;5114548;28;20216;-73
2022/04/15 09:24:44;;;;;;;20.73;13.07;;;;;;;26.13;30.61;98143.19;5103678;28;20773;-73
2022/04/15 09:27:10;;;;;;;14.47;12.77;;;;;;;26.05;30.70;98135.47;5099108;27;20187;-73
2022/04/15 09:29:38;;;;;;;15.40;12.13;;;;;;;26.02;31.01;98147.47;5114631;27;20453;-72
2022/04/15 09:32:16;;;;;;;13.57;11.20;;;;;;;25.95;30.93;98151.31;5114244;27;20220;-72
2022/04/15 09:35:04;;;;;;;14.07;12.60;;;;;;;25.83;29.80;98146.72;5122871;27;21021;-74
2022/04/15 09:37:34;;;;;;;14.57;13.10;;;;;;;25.95;30.16;98144.06;5113960;28;20442;-74
2022/04/15 09:40:14;;;;;;;13.77;12.27;;;;;;;26.11;29.70;98139.94;5114347;28;20502;-73
2022/04/15 09:42:46;;;;;;;13.30;11.90;;;;;;;26.31;29.61;98138.81;5095202;28;20563;-73
2022/04/15 09:45:19;;;;;;;12.40;10.30;;;;;;;26.72;30.16;98145.09;5099941;28;20423;-74
2022/04/15 09:48:00;;;;;;;13.10;11.80;;;;;;;26.75;29.67;98154.59;5117002;28;20419;-74
2022/04/15 09:50:27;;;;;;;13.50;10.43;;;;;;;27.10;29.79;98146.50;5119550;28;20787;-75
2022/04/15 09:52:54;;;;;;;11.77;10.43;;;;;;;27.28;28.91;98142.03;5103278;28;20938;-74
2022/04/15 09:55:23;;;;;;;13.90;11.30;;;;;;;27.21;28.34;98146.72;5115197;28;20431;-74
2022/04/15 09:57:49;;;;;;;11.93;10.67;;;;;;;27.01;27.92;98141.75;5116489;28;20465;-73
2022/04/15 10:00:19;;;;;;;14.43;10.50;;;;;;;26.99;28.82;98141.97;5116142;28;20434;-73
2022/04/15 10:02:46;;;;;;;13.03;11.80;;;;;;;26.93;28.59;98134.84;5114162;27;20994;-71
2022/04/15 10:05:13;;;;;;;9.10;8.20;;;;;;;27.17;28.40;98145.56;5117473;28;20419;-72
2022/04/15 10:07:42;;;;;;;13.93;11.77;;;;;;;27.12;28.41;98139.00;5116147;28;20422;-73
2022/04/15 10:10:09;;;;;;;17.03;11.53;;;;;;;26.80;28.41;98135.91;5098514;28;20864;-72
2022/04/15 10:12:39;;;;;;;11.80;10.70;;;;;;;26.91;29.09;98137.75;5097366;28;20447;-73
2022/04/15 10:15:09;;;;;;;12.47;8.93;;;;;;;27.21;28.50;98122.53;5096607;28;20439;-72
2022/04/15 10:17:39;;;;;;;11.97;10.50;;;;;;;27.52;28.30;98128.50;5097156;28;20803;-72
2022/04/15 10:20:09;;;;;;;14.40;9.80;;;;;;;27.39;28.31;98141.16;5126554;27;20438;-73
2022/04/15 10:22:37;;;;;;;12.50;10.70;;;;;;;27.22;28.24;98132.22;5096910;28;20494;-72
2022/04/15 10:25:05;;;;;;;11.60;9.97;;;;;;;27.09;28.88;98139.47;5100900;28;20518;-74
2022/04/15 10:27:31;;;;;;;11.87;10.53;;;;;;;27.05;28.67;98138.34;5097756;28;20927;-72
2022/04/15 10:30:13;;;;;;;12.13;10.90;;;;;;;26.65;28.92;98139.03;5117402;28;20426;-72
2022/04/15 10:32:54;;;;;;;11.90;10.70;;;;;;;26.49;28.97;98136.00;5116289;27;20251;-73
2022/04/15 10:35:32;;;;;;;11.40;8.90;;;;;;;26.45;29.36;98136.69;5115669;28;20457;-72
2022/04/15 10:38:02;;;;;;;12.27;9.40;;;;;;;26.63;28.63;98139.28;5116940;28;20475;-72
2022/04/15 10:40:29;;;;;;;10.97;9.40;;;;;;;26.91;28.76;98129.69;5098486;28;20426;-73
2022/04/15 10:43:23;;;;;;;9.20;8.20;;;;;;;27.14;29.00;98136.91;5113720;28;20553;-74
2022/04/15 10:45:51;;;;;;;10.23;9.20;;;;;;;27.07;28.10;98130.84;5095117;28;20453;-73
2022/04/15 10:48:32;;;;;;;13.73;9.53;;;;;;;26.79;28.61;98135.09;5114992;28;20458;-74
2022/04/15 10:51:12;;;;;;;10.60;9.57;;;;;;;26.56;29.13;98140.47;5115395;28;20439;-74
2022/04/15 10:53:38;;;;;;;12.80;10.57;;;;;;;26.67;29.23;98142.31;5088123;28;20431;-73
2022/04/15 10:56:08;;;;;;;10.40;9.30;;;;;;;26.80;29.13;98131.34;5115628;28;20411;-73
2022/04/15 11:01:13;;;;;;;11.23;9.90;;;;;;;26.99;28.72;98141.97;5116510;28;20275;-73
2022/04/15 11:01:33;;;;;;;12.00;9.67;;;;;;;27.32;28.41;98136.97;5111578;28;20474;-74
2022/04/15 11:04:04;;;;;;;13.40;10.20;;;;;;;27.41;27.99;98127.47;5110641;28;21293;-72
2022/04/15 11:06:30;;;;;;;11.90;9.20;;;;;;;27.49;27.90;98137.06;5111638;28;20265;-74
2022/04/15 11:08:55;;;;;;;10.20;9.20;;;;;;;27.39;27.85;98133.09;5093127;28;21147;-74
2022/04/15 11:11:36;;;;;;;10.57;9.53;;;;;;;27.13;28.29;98135.28;5111753;28;20574;-75
2022/04/15 11:14:04;;;;;;;10.47;9.03;;;;;;;26.87;28.58;98135.78;5092390;28;20191;-75
2022/04/15 11:16:47;;;;;;;11.00;7.70;;;;;;;27.02;29.31;98144.19;5094178;28;20436;-73
2022/04/15 11:19:17;;;;;;;8.87;8.07;;;;;;;27.29;29.06;98139.09;5111811;28;20446;-74
2022/04/15 11:21:45;;;;;;;10.97;9.20;;;;;;;27.33;28.26;98141.31;5073958;28;20880;-74
2022/04/15 11:24:12;;;;;;;11.70;8.87;;;;;;;27.05;28.17;98138.34;5111527;28;21049;-74
2022/04/15 11:26:43;;;;;;;9.03;7.83;;;;;;;26.72;28.30;98128.97;5091536;28;20529;-74
2022/04/15 11:29:11;;;;;;;9.67;8.67;;;;;;;26.41;28.70;98132.84;5109688;28;20453;-74